createdAt,value
2017-08-13T00:01:34.629Z,96.70
2017-08-13T00:04:02.946Z,99.60
2017-08-13T00:06:31.250Z,97.50
2017-08-13T00:08:59.584Z,96.60
2017-08-13T00:11:27.880Z,99.90
2017-08-13T00:13:56.184Z,96.20
2017-08-13T00:16:24.502Z,96.80
2017-08-13T00:18:52.794Z,96.00
2017-08-13T00:21:21.141Z,96.90
2017-08-13T00:23:49.492Z,97.10
2017-08-13T00:26:17.787Z,99.90
2017-08-13T00:28:46.849Z,99.90
2017-08-13T00:31:15.177Z,99.90
2017-08-13T00:33:43.516Z,96.80
2017-08-13T00:36:12.610Z,98.30
2017-08-13T00:38:40.906Z,98.20
2017-08-13T00:41:09.210Z,97.20
2017-08-13T00:43:37.559Z,95.60
2017-08-13T00:46:06.623Z,99.90
2017-08-13T00:48:34.930Z,99.90
2017-08-13T00:51:03.246Z,99.80
2017-08-13T00:53:31.546Z,98.80
2017-08-13T00:55:59.883Z,98.10
2017-08-13T00:58:28.181Z,99.70
2017-08-13T01:00:56.477Z,99.90
2017-08-13T01:03:24.796Z,99.20
2017-08-13T01:05:53.116Z,99.90
2017-08-13T01:08:22.227Z,99.30
2017-08-13T01:10:50.520Z,98.50
2017-08-13T01:13:18.827Z,99.90
2017-08-13T01:15:47.136Z,99.10
2017-08-13T01:18:15.452Z,99.90
2017-08-13T01:20:43.759Z,98.50
2017-08-13T01:23:12.157Z,98.00
2017-08-13T01:25:40.453Z,97.90
2017-08-13T01:28:08.777Z,99.30
2017-08-13T01:30:37.143Z,99.80
2017-08-13T01:33:05.465Z,99.90
2017-08-13T01:35:33.768Z,99.90
2017-08-13T01:38:02.088Z,99.90
2017-08-13T01:40:30.393Z,99.90
2017-08-13T01:42:58.721Z,98.60
2017-08-13T01:45:27.011Z,99.90
2017-08-13T01:47:55.317Z,97.80
2017-08-13T01:50:23.665Z,97.30
2017-08-13T01:52:52.720Z,97.40
2017-08-13T01:55:21.045Z,97.30
2017-08-13T01:57:49.371Z,99.30
2017-08-13T02:00:18.477Z,98.70
2017-08-13T02:02:46.772Z,99.00
2017-08-13T02:05:15.074Z,99.90
2017-08-13T02:07:43.454Z,98.60
2017-08-13T02:10:12.576Z,99.90
2017-08-13T02:12:41.630Z,98.70
2017-08-13T02:15:09.931Z,98.80
2017-08-13T02:17:38.260Z,99.90
2017-08-13T02:20:06.582Z,99.90
2017-08-13T02:22:34.912Z,99.90
2017-08-13T02:25:03.998Z,99.90
2017-08-13T02:27:32.301Z,99.90
2017-08-13T02:30:00.622Z,99.90
2017-08-13T02:32:28.930Z,99.90
2017-08-13T02:34:57.268Z,99.60
2017-08-13T02:37:26.334Z,99.90
2017-08-13T02:39:55.435Z,99.90
2017-08-13T02:42:23.764Z,99.90
2017-08-13T02:44:52.066Z,99.90
2017-08-13T02:47:20.403Z,99.90
2017-08-13T02:49:48.718Z,99.90
2017-08-13T02:52:17.018Z,99.90
2017-08-13T02:54:45.341Z,99.90
2017-08-13T02:57:13.633Z,99.90
2017-08-13T02:59:41.971Z,99.90
2017-08-13T03:02:10.282Z,99.90
2017-08-13T03:04:38.600Z,99.90
2017-08-13T03:07:07.692Z,99.90
2017-08-13T03:09:36.025Z,99.90
2017-08-13T03:12:05.142Z,99.90
2017-08-13T03:14:33.441Z,99.90
2017-08-13T03:17:01.771Z,99.90
2017-08-13T03:19:30.130Z,99.90
2017-08-13T03:21:58.452Z,99.90
2017-08-13T03:24:26.748Z,99.90
2017-08-13T03:26:55.060Z,99.90
2017-08-13T03:29:23.353Z,99.90
2017-08-13T03:31:51.685Z,99.90
2017-08-13T03:34:19.976Z,99.90
2017-08-13T03:36:48.271Z,99.90
2017-08-13T03:39:16.610Z,99.90
2017-08-13T03:41:44.912Z,99.90
2017-08-13T03:44:13.212Z,99.90
2017-08-13T03:46:41.535Z,99.90
2017-08-13T03:49:10.604Z,99.90
2017-08-13T03:51:38.894Z,99.90
2017-08-13T03:54:07.949Z,99.90
2017-08-13T03:56:36.265Z,99.90
2017-08-13T03:59:04.604Z,99.90
2017-08-13T04:01:32.903Z,99.90
2017-08-13T04:04:01.202Z,99.90
2017-08-13T04:06:29.524Z,99.90
2017-08-13T04:08:57.857Z,99.90
2017-08-13T04:11:26.155Z,99.90
2017-08-13T04:13:54.447Z,99.90
2017-08-13T04:16:22.769Z,99.90
2017-08-13T04:18:51.703Z,99.90
2017-08-13T04:21:20.809Z,99.90
2017-08-13T04:23:49.111Z,99.90
2017-08-13T04:26:17.441Z,99.90
2017-08-13T04:28:46.548Z,99.90
2017-08-13T04:31:14.846Z,99.90
2017-08-13T04:33:43.177Z,99.90
2017-08-13T04:36:12.246Z,99.90
2017-08-13T04:38:40.570Z,99.90
2017-08-13T04:41:08.880Z,99.90
2017-08-13T04:43:37.194Z,99.90
2017-08-13T04:46:05.523Z,99.90
2017-08-13T04:48:34.601Z,99.90
2017-08-13T04:51:02.901Z,99.90
2017-08-13T04:53:31.217Z,99.90
2017-08-13T04:55:59.509Z,99.90
2017-08-13T04:58:27.873Z,99.90
2017-08-13T05:00:56.933Z,99.90
2017-08-13T05:03:25.239Z,99.90
2017-08-13T05:05:53.563Z,99.90
2017-08-13T05:08:21.884Z,99.90
2017-08-13T05:10:50.205Z,99.90
2017-08-13T05:13:18.500Z,99.90
2017-08-13T05:15:46.799Z,99.90
2017-08-13T05:18:15.135Z,99.90
2017-08-13T05:20:44.315Z,99.20
2017-08-13T05:23:12.614Z,99.20
2017-08-13T05:25:40.946Z,99.90
2017-08-13T05:28:09.265Z,99.90
2017-08-13T05:30:37.613Z,99.90
2017-08-13T05:33:05.976Z,99.90
2017-08-13T05:35:35.073Z,99.90
2017-08-13T05:38:03.405Z,97.50
2017-08-13T05:40:31.740Z,99.30
2017-08-13T05:43:00.037Z,96.40
2017-08-13T05:45:28.410Z,93.10
2017-08-13T05:47:57.485Z,91.80
2017-08-13T05:50:25.815Z,92.60
2017-08-13T05:52:54.144Z,90.40
2017-08-13T05:55:22.437Z,94.70
2017-08-13T05:57:50.740Z,93.10
2017-08-13T06:00:19.093Z,96.20
2017-08-13T06:02:47.388Z,95.80
2017-08-13T06:05:16.494Z,97.40
2017-08-13T06:07:44.815Z,97.40
2017-08-13T06:10:13.127Z,99.60
2017-08-13T06:12:41.451Z,99.40
2017-08-13T06:15:09.740Z,98.80
2017-08-13T06:17:38.102Z,94.70
2017-08-13T06:20:06.402Z,96.40
2017-08-13T06:22:34.736Z,95.40
2017-08-13T06:25:03.799Z,98.80
2017-08-13T06:27:32.112Z,98.80
2017-08-13T06:30:00.461Z,99.40
2017-08-13T06:32:28.753Z,99.50
2017-08-13T06:34:57.051Z,99.90
2017-08-13T06:37:26.151Z,88.90
2017-08-13T06:39:54.464Z,89.40
2017-08-13T06:42:22.788Z,86.10
2017-08-13T06:44:51.091Z,84.50
2017-08-13T06:47:19.390Z,85.20
2017-08-13T06:49:47.714Z,88.50
2017-08-13T06:52:16.049Z,86.30
2017-08-13T06:54:45.179Z,88.50
2017-08-13T06:57:13.470Z,88.50
2017-08-13T06:59:41.773Z,87.90
2017-08-13T07:02:10.102Z,85.90
2017-08-13T07:04:38.403Z,85.70
2017-08-13T07:07:06.714Z,84.90
2017-08-13T07:09:35.812Z,83.40
2017-08-13T07:12:04.103Z,84.10
2017-08-13T07:14:32.456Z,78.30
2017-08-13T07:17:00.773Z,76.50
2017-08-13T07:19:29.078Z,71.80
2017-08-13T07:21:57.416Z,62.20
2017-08-13T07:24:26.478Z,61.30
2017-08-13T07:26:54.769Z,56.60
2017-08-13T07:29:23.879Z,50.90
2017-08-13T07:31:52.193Z,51.60
2017-08-13T07:34:20.547Z,52.30
2017-08-13T07:36:48.846Z,53.00
2017-08-13T07:39:17.155Z,57.60
2017-08-13T07:41:46.264Z,56.40
2017-08-13T07:44:15.373Z,56.20
2017-08-13T07:46:43.668Z,56.20
2017-08-13T07:49:12.071Z,61.20
2017-08-13T07:51:40.388Z,63.80
2017-08-13T07:54:08.752Z,64.20
2017-08-13T07:56:37.060Z,64.00
2017-08-13T07:59:05.361Z,67.80
2017-08-13T08:01:33.746Z,62.50
2017-08-13T08:04:02.917Z,53.60
2017-08-13T08:06:31.251Z,53.70
2017-08-13T08:08:59.596Z,51.20
2017-08-13T08:11:27.932Z,50.60
2017-08-13T08:13:56.225Z,46.70
2017-08-13T08:16:24.534Z,46.80
2017-08-13T08:18:52.869Z,41.20
2017-08-13T08:21:21.959Z,44.40
2017-08-13T08:23:50.282Z,44.30
2017-08-13T08:26:19.855Z,42.40
2017-08-13T08:28:48.173Z,40.50
2017-08-13T08:31:16.523Z,39.60
2017-08-13T08:33:44.835Z,39.10
2017-08-13T08:36:13.129Z,43.40
2017-08-13T08:38:41.482Z,43.60
2017-08-13T08:41:09.793Z,44.20
2017-08-13T08:43:38.096Z,44.40
2017-08-13T08:46:06.425Z,46.60
2017-08-13T08:48:34.757Z,48.50
2017-08-13T08:51:03.054Z,42.20
2017-08-13T08:53:31.430Z,42.50
2017-08-13T08:55:59.763Z,46.50
2017-08-13T08:58:28.124Z,52.40
2017-08-13T09:00:56.428Z,51.00
2017-08-13T09:03:24.746Z,49.10
2017-08-13T09:05:53.089Z,55.20
2017-08-13T09:08:21.421Z,53.00
2017-08-13T09:10:49.725Z,52.10
2017-08-13T09:13:18.062Z,55.50
2017-08-13T09:15:46.371Z,57.50
2017-08-13T09:18:14.676Z,57.70
2017-08-13T09:20:43.013Z,56.70
2017-08-13T09:23:11.360Z,61.80
2017-08-13T09:25:39.703Z,62.30
2017-08-13T09:28:08.798Z,61.50
2017-08-13T09:30:37.098Z,61.50
2017-08-13T09:33:05.425Z,62.90
2017-08-13T09:35:33.725Z,60.20
2017-08-13T09:38:02.066Z,64.10
2017-08-13T09:40:31.144Z,64.10
2017-08-13T09:42:59.445Z,64.00
2017-08-13T09:45:27.772Z,64.10
2017-08-13T09:47:56.069Z,67.30
2017-08-13T09:50:24.456Z,64.20
2017-08-13T09:52:52.791Z,59.70
2017-08-13T09:55:21.884Z,58.00
2017-08-13T09:57:50.189Z,57.40
2017-08-13T10:00:18.518Z,59.20
2017-08-13T10:02:46.895Z,54.80
2017-08-13T10:05:15.253Z,55.80
2017-08-13T10:07:43.581Z,57.10
2017-08-13T10:10:12.692Z,56.10
2017-08-13T10:12:41.009Z,56.00
2017-08-13T10:15:10.097Z,57.20
2017-08-13T10:17:38.479Z,57.10
2017-08-13T10:20:06.901Z,56.60
2017-08-13T10:22:35.209Z,55.30
2017-08-13T10:25:03.605Z,53.10
2017-08-13T10:27:31.911Z,45.50
2017-08-13T10:30:00.222Z,48.40
2017-08-13T10:32:28.601Z,44.90
2017-08-13T10:34:56.912Z,47.60
2017-08-13T10:37:25.202Z,47.60
2017-08-13T10:39:54.319Z,47.30
2017-08-13T10:42:22.611Z,47.20
2017-08-13T10:44:50.918Z,47.10
2017-08-13T10:47:19.257Z,46.50
2017-08-13T10:49:47.557Z,49.10
2017-08-13T10:52:15.934Z,47.70
2017-08-13T10:54:44.255Z,48.30
2017-08-13T10:57:13.403Z,50.10
2017-08-13T10:59:41.737Z,49.30
2017-08-13T11:02:10.053Z,44.10
2017-08-13T11:04:38.429Z,45.60
2017-08-13T11:07:06.753Z,46.80
2017-08-13T11:09:35.085Z,48.30
2017-08-13T11:12:03.480Z,46.20
2017-08-13T11:14:31.787Z,47.00
2017-08-13T11:17:00.125Z,43.70
2017-08-13T11:19:28.421Z,45.10
2017-08-13T11:21:56.717Z,46.10
2017-08-13T11:24:25.055Z,43.60
2017-08-13T11:26:53.366Z,43.40
2017-08-13T11:29:21.678Z,44.90
2017-08-13T11:31:50.025Z,45.70
2017-08-13T11:34:18.345Z,46.20
2017-08-13T11:36:46.653Z,41.70
2017-08-13T11:39:14.985Z,44.80
2017-08-13T11:41:43.328Z,41.90
2017-08-13T11:44:11.624Z,42.90
2017-08-13T11:46:39.918Z,44.10
2017-08-13T11:49:08.835Z,46.90
2017-08-13T11:51:37.141Z,45.20
2017-08-13T11:54:05.460Z,45.20
2017-08-13T11:56:33.758Z,46.10
2017-08-13T11:59:02.053Z,46.60
2017-08-13T12:01:30.385Z,48.30
2017-08-13T12:03:58.692Z,50.00
2017-08-13T12:06:27.021Z,50.80
2017-08-13T12:08:55.371Z,49.70
2017-08-13T12:11:23.709Z,49.30
2017-08-13T12:13:52.161Z,47.80
2017-08-13T12:16:21.253Z,45.70
2017-08-13T12:18:49.597Z,45.60
2017-08-13T12:21:18.705Z,42.70
2017-08-13T12:23:47.010Z,41.90
2017-08-13T12:26:15.301Z,44.30
2017-08-13T12:28:43.628Z,44.90
2017-08-13T12:31:12.694Z,45.70
2017-08-13T12:33:41.020Z,45.10
2017-08-13T12:36:09.365Z,44.90
2017-08-13T12:38:37.669Z,47.00
2017-08-13T12:41:06.067Z,44.90
2017-08-13T12:43:34.408Z,48.10
2017-08-13T12:46:02.726Z,44.00
2017-08-13T12:48:31.054Z,42.60
2017-08-13T12:51:00.114Z,44.50
2017-08-13T12:53:28.449Z,43.70
2017-08-13T12:55:56.750Z,45.20
2017-08-13T12:58:25.101Z,44.70
2017-08-13T13:00:54.200Z,41.10
2017-08-13T13:03:22.499Z,41.10
2017-08-13T13:05:50.845Z,42.00
2017-08-13T13:08:19.915Z,40.80
2017-08-13T13:10:48.212Z,40.70
2017-08-13T13:13:16.547Z,41.80
2017-08-13T13:15:44.858Z,42.60
2017-08-13T13:18:13.190Z,43.70
2017-08-13T13:20:42.261Z,43.70
2017-08-13T13:23:10.597Z,43.70
2017-08-13T13:25:38.921Z,45.10
2017-08-13T13:28:07.973Z,41.40
2017-08-13T13:30:36.335Z,41.40
2017-08-13T13:33:04.636Z,41.40
2017-08-13T13:35:32.955Z,39.30
2017-08-13T13:38:01.285Z,39.50
2017-08-13T13:40:29.610Z,41.90
2017-08-13T13:42:57.914Z,41.70
2017-08-13T13:45:26.249Z,39.70
2017-08-13T13:47:55.318Z,40.20
2017-08-13T13:50:23.649Z,40.30
2017-08-13T13:52:52.077Z,41.00
2017-08-13T13:55:20.444Z,41.30
2017-08-13T13:57:50.652Z,38.70
2017-08-13T14:00:19.069Z,36.80
2017-08-13T14:02:48.248Z,38.90
2017-08-13T14:05:20.175Z,38.90
2017-08-13T14:07:48.501Z,40.50
2017-08-13T14:10:16.818Z,42.00
2017-08-13T14:12:45.152Z,42.30
2017-08-13T14:15:13.484Z,42.30
2017-08-13T14:17:41.775Z,42.60
2017-08-13T14:20:10.097Z,42.70
2017-08-13T14:22:38.423Z,40.90
2017-08-13T14:25:06.754Z,36.40
2017-08-13T14:27:35.054Z,39.30
2017-08-13T14:30:03.604Z,39.70
2017-08-13T14:32:31.956Z,40.40
2017-08-13T14:35:01.014Z,38.80
2017-08-13T14:37:30.274Z,38.80
2017-08-13T14:39:58.578Z,40.20
2017-08-13T14:42:26.876Z,40.60
2017-08-13T14:44:55.206Z,37.30
2017-08-13T14:47:23.517Z,40.10
2017-08-13T14:49:51.844Z,40.60
2017-08-13T14:52:20.970Z,37.80
2017-08-13T14:54:50.033Z,37.90
2017-08-13T14:57:18.345Z,38.50
2017-08-13T14:59:46.662Z,39.50
2017-08-13T15:02:15.007Z,39.70
2017-08-13T15:04:43.347Z,39.20
2017-08-13T15:07:11.647Z,39.20
2017-08-13T15:09:39.954Z,40.10
2017-08-13T15:12:08.289Z,40.30
2017-08-13T15:14:36.608Z,40.40
2017-08-13T15:17:04.949Z,40.10
2017-08-13T15:19:34.022Z,38.50
2017-08-13T15:22:02.361Z,38.70
2017-08-13T15:24:30.648Z,38.60
2017-08-13T15:26:58.967Z,38.70
2017-08-13T15:29:27.297Z,38.40
2017-08-13T15:31:55.639Z,40.00
2017-08-13T15:34:24.723Z,38.50
2017-08-13T15:36:53.039Z,38.50
2017-08-13T15:39:21.378Z,38.70
2017-08-13T15:41:49.681Z,39.40
2017-08-13T15:44:18.019Z,40.20
2017-08-13T15:46:46.316Z,40.10
2017-08-13T15:49:14.683Z,40.30
2017-08-13T15:51:43.011Z,38.90
2017-08-13T15:54:11.324Z,37.80
2017-08-13T15:56:39.687Z,37.10
2017-08-13T15:59:08.121Z,38.20
2017-08-13T16:01:36.427Z,37.90
2017-08-13T16:04:04.807Z,39.60
2017-08-13T16:06:34.352Z,38.00
2017-08-13T16:09:03.463Z,38.30
2017-08-13T16:11:32.577Z,38.10
2017-08-13T16:14:00.894Z,37.50
2017-08-13T16:16:30.011Z,40.00
2017-08-13T16:18:58.324Z,39.30
2017-08-13T16:21:27.396Z,35.90
2017-08-13T16:23:55.728Z,36.00
2017-08-13T16:26:24.061Z,37.50
2017-08-13T16:28:52.374Z,35.90
2017-08-13T16:31:20.737Z,35.50
2017-08-13T16:33:49.049Z,36.30
2017-08-13T16:36:18.136Z,32.10
2017-08-13T16:38:46.476Z,32.70
2017-08-13T16:41:14.796Z,36.50
2017-08-13T16:43:43.909Z,40.70
2017-08-13T16:46:12.339Z,40.70
2017-08-13T16:48:41.414Z,39.00
2017-08-13T16:51:09.745Z,38.90
2017-08-13T16:53:38.096Z,40.10
2017-08-13T16:56:06.425Z,40.60
2017-08-13T16:58:34.733Z,41.10
2017-08-13T17:01:03.089Z,41.30
2017-08-13T17:03:32.162Z,42.00
2017-08-13T17:06:00.513Z,42.10
2017-08-13T17:08:28.822Z,42.30
2017-08-13T17:10:57.129Z,42.30
2017-08-13T17:13:25.473Z,42.80
2017-08-13T17:15:53.807Z,43.40
2017-08-13T17:18:22.173Z,43.40
2017-08-13T17:20:50.498Z,44.30
2017-08-13T17:23:18.818Z,42.60
2017-08-13T17:25:47.167Z,39.00
2017-08-13T17:28:16.240Z,40.90
2017-08-13T17:30:44.586Z,40.80
2017-08-13T17:33:13.685Z,41.10
2017-08-13T17:35:42.019Z,41.00
2017-08-13T17:38:10.342Z,43.10
2017-08-13T17:40:38.761Z,40.60
2017-08-13T17:43:07.127Z,42.10
2017-08-13T17:45:35.477Z,40.70
2017-08-13T17:48:04.074Z,41.40
2017-08-13T17:50:33.148Z,41.00
2017-08-13T17:53:01.493Z,40.90
2017-08-13T17:55:29.832Z,42.30
2017-08-13T17:57:58.181Z,44.60
2017-08-13T18:00:26.488Z,44.30
2017-08-13T18:02:54.785Z,44.80
2017-08-13T18:05:23.130Z,46.40
2017-08-13T18:07:51.476Z,46.90
2017-08-13T18:10:19.785Z,47.20
2017-08-13T18:12:48.124Z,47.90
2017-08-13T18:15:16.470Z,48.80
2017-08-13T18:17:44.814Z,48.90
2017-08-13T18:20:13.135Z,49.00
2017-08-13T18:22:41.442Z,50.30
2017-08-13T18:25:09.797Z,50.30
2017-08-13T18:27:38.157Z,50.50
2017-08-13T18:30:06.473Z,50.70
2017-08-13T18:32:35.599Z,50.00
2017-08-13T18:35:03.898Z,50.80
2017-08-13T18:37:32.200Z,52.00
2017-08-13T18:40:00.532Z,53.50
2017-08-13T18:42:28.871Z,52.40
2017-08-13T18:44:57.221Z,51.70
2017-08-13T18:47:25.559Z,52.20
2017-08-13T18:49:54.711Z,52.80
2017-08-13T18:52:23.088Z,52.70
2017-08-13T18:54:52.156Z,53.00
2017-08-13T18:57:20.460Z,53.10
2017-08-13T18:59:48.842Z,54.20
2017-08-13T19:02:17.177Z,55.10
2017-08-13T19:04:45.510Z,54.70
2017-08-13T19:07:13.832Z,55.10
2017-08-13T19:09:42.907Z,55.40
2017-08-13T19:12:11.236Z,55.80
2017-08-13T19:14:39.597Z,55.50
2017-08-13T19:17:07.982Z,55.40
2017-08-13T19:19:36.289Z,55.50
2017-08-13T19:22:04.637Z,56.50
2017-08-13T19:24:33.008Z,56.40
2017-08-13T19:27:01.334Z,57.50
2017-08-13T19:29:29.658Z,56.80
2017-08-13T19:31:58.696Z,58.10
2017-08-13T19:34:27.137Z,58.60
2017-08-13T19:36:55.443Z,57.90
2017-08-13T19:39:23.746Z,59.00
2017-08-13T19:41:52.083Z,59.40
2017-08-13T19:44:20.457Z,60.00
2017-08-13T19:46:48.765Z,59.70
2017-08-13T19:49:17.076Z,59.90
2017-08-13T19:51:45.403Z,62.00
2017-08-13T19:54:14.469Z,62.20
2017-08-13T19:56:42.815Z,62.00
2017-08-13T19:59:11.158Z,61.60
2017-08-13T20:01:39.526Z,60.80
2017-08-13T20:04:07.852Z,60.80
2017-08-13T20:06:36.972Z,61.80
2017-08-13T20:09:06.045Z,62.20
2017-08-13T20:11:34.371Z,62.20
2017-08-13T20:14:02.670Z,64.20
2017-08-13T20:16:31.022Z,63.50
2017-08-13T20:18:59.353Z,63.70
2017-08-13T20:21:27.664Z,64.30
2017-08-13T20:23:56.031Z,64.90
2017-08-13T20:26:25.118Z,67.30
2017-08-13T20:28:53.411Z,66.40
2017-08-13T20:31:21.781Z,67.50
2017-08-13T20:33:50.169Z,68.90
2017-08-13T20:36:18.514Z,69.20
2017-08-13T20:38:46.854Z,69.00
2017-08-13T20:41:15.194Z,69.30
2017-08-13T20:43:44.275Z,67.60
2017-08-13T20:46:12.650Z,67.60
2017-08-13T20:48:40.955Z,67.00
2017-08-13T20:51:09.301Z,68.30
2017-08-13T20:53:37.643Z,68.50
2017-08-13T20:56:06.770Z,66.70
2017-08-13T20:58:35.830Z,67.70
2017-08-13T21:01:04.133Z,67.70
2017-08-13T21:03:32.476Z,67.70
2017-08-13T21:06:00.806Z,68.00
2017-08-13T21:08:29.895Z,70.80
2017-08-13T21:10:58.719Z,70.40
2017-08-13T21:13:27.094Z,71.40
2017-08-13T21:15:55.433Z,72.10
2017-08-13T21:18:23.793Z,73.20
2017-08-13T21:20:52.126Z,74.00
2017-08-13T21:23:20.536Z,74.30
2017-08-13T21:25:49.629Z,71.00
2017-08-13T21:28:18.726Z,71.00
2017-08-13T21:30:47.051Z,70.90
2017-08-13T21:33:15.470Z,70.50
2017-08-13T21:35:44.563Z,71.00
2017-08-13T21:38:12.895Z,70.90
2017-08-13T21:40:41.330Z,71.00
2017-08-13T21:43:09.632Z,70.20
2017-08-13T21:45:37.935Z,71.00
2017-08-13T21:48:06.976Z,71.20
2017-08-13T21:50:35.276Z,72.20
2017-08-13T21:53:03.570Z,73.10
2017-08-13T21:55:31.917Z,73.80
2017-08-13T21:58:00.226Z,73.80
2017-08-13T22:00:28.637Z,74.20
2017-08-13T22:02:56.993Z,73.50
2017-08-13T22:05:25.280Z,73.30
2017-08-13T22:07:53.605Z,73.50
2017-08-13T22:10:21.909Z,73.70
2017-08-13T22:12:50.244Z,73.30
2017-08-13T22:15:18.539Z,73.70
2017-08-13T22:17:46.868Z,73.40
2017-08-13T22:20:15.223Z,74.60
2017-08-13T22:22:43.527Z,75.90
2017-08-13T22:25:11.846Z,76.60
2017-08-13T22:27:40.185Z,76.80
2017-08-13T22:30:08.513Z,77.50
2017-08-13T22:32:37.645Z,76.70
2017-08-13T22:35:05.947Z,75.80
2017-08-13T22:37:34.272Z,76.20
2017-08-13T22:40:02.578Z,76.70
2017-08-13T22:42:30.906Z,75.70
2017-08-13T22:44:59.241Z,75.30
2017-08-13T22:47:27.544Z,75.10
2017-08-13T22:49:55.888Z,75.20
2017-08-13T22:52:24.973Z,75.30
2017-08-13T22:54:53.293Z,75.30
2017-08-13T22:57:21.623Z,74.80
2017-08-13T22:59:50.687Z,73.70
2017-08-13T23:02:19.013Z,73.70
2017-08-13T23:04:47.344Z,73.00
2017-08-13T23:07:15.681Z,73.00
2017-08-13T23:09:44.038Z,74.10
2017-08-13T23:12:12.341Z,74.10
2017-08-13T23:14:40.644Z,76.00
2017-08-13T23:17:12.886Z,75.60
2017-08-13T23:19:41.173Z,75.30
2017-08-13T23:22:09.502Z,75.00
2017-08-13T23:24:38.573Z,76.10
2017-08-13T23:27:06.898Z,76.20
2017-08-13T23:29:35.199Z,75.40
2017-08-13T23:32:03.562Z,75.00
2017-08-13T23:34:31.866Z,76.10
2017-08-13T23:37:00.163Z,75.20
2017-08-13T23:39:28.721Z,76.00
2017-08-13T23:41:57.033Z,76.00
2017-08-13T23:44:26.093Z,77.20
2017-08-13T23:46:54.417Z,77.10
2017-08-13T23:49:22.721Z,78.20
2017-08-13T23:51:51.057Z,77.70
2017-08-13T23:54:19.353Z,77.40
2017-08-13T23:56:47.662Z,78.80
2017-08-13T23:59:16.043Z,78.40
